12 a 21/10 - Evento de lluvias y tormentas CN y N. Templado a caluroso C, N y Patagonia N [final con tormentas severas]

Avatar de Usuario
dlm86_fv
Mensajes: 4161
Registrado: Mié Abr 13, 2011 1:04 am
Ubicación: Estanislao Severo Zeballos, Florencio Varela, Gran Buenos Aires
Contactar:

Re: 12 a 21/10 - Evento de lluvias y tormentas CN y N. Templado a caluroso C, N y Patagonia N.

Mensaje por dlm86_fv » Dom Oct 18, 2020 4:18 pm

32° clavados -el dinero (?)-. Ya tenemos récord de calor para un Día de la Madre en Buenos Aires.

Increíble lo de Rosario con sus 37,6°. Récord anual ya confirmado y camino a ser récord de todos los octubres.
Última edición por dlm86_fv el Dom Oct 18, 2020 4:23 pm, editado 1 vez en total.
Por muy larga que sea la tormenta, el sol siempre vuelve a brillar entre las nubes.

Atte, Diego de Varela.

Imagen

Avatar de Usuario
MOTORHOMEMASTER
Mensajes: 4853
Registrado: Lun May 16, 2011 2:20 pm
Ubicación: Castelar o Hurlingham, Prov. Bs. As.

Re: 12 a 21/10 - Evento de lluvias y tormentas CN y N. Templado a caluroso C, N y Patagonia N.

Mensaje por MOTORHOMEMASTER » Dom Oct 18, 2020 4:22 pm

Hay una nube bastante amenazante al oeste de Castelar

Avatar de Usuario
Diecha
Mensajes: 11877
Registrado: Jue Ago 25, 2011 9:31 pm
Ubicación: Lomas de Zamora

Re: 12 a 21/10 - Evento de lluvias y tormentas CN y N. Templado a caluroso C, N y Patagonia N.

Mensaje por Diecha » Dom Oct 18, 2020 4:24 pm

- San Fernando 16 hs: SADF 181900Z 05010KT 9999 FEW050TCU 32/23 Q1005
- Aeroparque 16 hs: SABE 181900Z 09007KT 9999 FEW045TCU 27/22 Q1006
- Ezeiza 16 hs: SAEZ 181900Z 04010KT 9999 FEW060TCU 33/21 Q1005

Imagen
Imagen
Imagen
Última edición por Diecha el Dom Oct 18, 2020 6:51 pm, editado 1 vez en total.

Avatar de Usuario
Wyoming
Mensajes: 905
Registrado: Jue Jun 22, 2017 12:15 pm
Ubicación: Choele choel/RN

Re: 12 a 21/10 - Evento de lluvias y tormentas CN y N. Templado a caluroso C, N y Patagonia N.

Mensaje por Wyoming » Dom Oct 18, 2020 4:26 pm

Villa Reynolds 41°C
Previously known as MarianoStorm.
Pasillo de los Tornados - Pasado y presente.

and96
Mensajes: 6187
Registrado: Mié Ago 15, 2012 2:32 pm
Ubicación: Tandil, BA

Re: 12 a 21/10 - Evento de lluvias y tormentas CN y N. Templado a caluroso C, N y Patagonia N.

Mensaje por and96 » Dom Oct 18, 2020 4:30 pm

Que hermosa vistaaaaa

Imagen

Imagen
Última edición por and96 el Dom Oct 18, 2020 4:36 pm, editado 1 vez en total.

Avatar de Usuario
Ezequiel15
Mensajes: 11660
Registrado: Lun Ene 23, 2012 4:18 pm
Ubicación: I Casanova
Contactar:

Re: 12 a 21/10 - Evento de lluvias y tormentas CN y N. Templado a caluroso C, N y Patagonia N.

Mensaje por Ezequiel15 » Dom Oct 18, 2020 4:31 pm

Junin 36,8 (habrá tenido más temperatura en octubre del 2014?)
La Rioja 41,5
Sgo del estero 41,1
Tucumán 40,9

Avatar de Usuario
Marg Tor
Mensajes: 1713
Registrado: Jue Sep 20, 2018 8:54 pm
Ubicación: Rosario

Re: 12 a 21/10 - Evento de lluvias y tormentas CN y N. Templado a caluroso C, N y Patagonia N.

Mensaje por Marg Tor » Dom Oct 18, 2020 4:33 pm

and96 escribió:
Dom Oct 18, 2020 4:30 pm
Que hermosa vistaaaaa
Naaaa mira esso!!

Imagen
Nena, vi un rayo... vuelvo en unas horas...
Te duele el calor y la humedad? Adermicina.
EMA Villa Gdor. Gálvez
EMA Villa Gdor. Gálvez Cooperativa

luciano sl sf
Mensajes: 3162
Registrado: Mar Dic 11, 2012 6:29 pm
Ubicación: San Lorenzo, Santa Fé

Re: 12 a 21/10 - Evento de lluvias y tormentas CN y N. Templado a caluroso C, N y Patagonia N.

Mensaje por luciano sl sf » Dom Oct 18, 2020 4:34 pm

and96 escribió:
Dom Oct 18, 2020 4:30 pm
Que hermosa vistaaaaa

Imagen
:o :o :o

Hermoso Andy!

Caloventor mode on en Rosario

Avatar de Usuario
Santiago Linari
Mensajes: 8151
Registrado: Sab Dic 29, 2012 4:28 pm
Ubicación: Challao, Mendoza

Re: 12 a 21/10 - Evento de lluvias y tormentas CN y N. Templado a caluroso C, N y Patagonia N.

Mensaje por Santiago Linari » Dom Oct 18, 2020 4:40 pm

Acá pasó el frente hace rato. Desde la mañana hay vientos del sur.
Igualmente hace mucho calor.

32°C y 14%. SE a 14 km/h.

Tremenda foto Andy :o
¡Oops!

Algo salió mal

Cordobés82
Mensajes: 193
Registrado: Vie Abr 22, 2016 2:13 am
Ubicación: Córdoba

Re: 12 a 21/10 - Evento de lluvias y tormentas CN y N. Templado a caluroso C, N y Patagonia N.

Mensaje por Cordobés82 » Dom Oct 18, 2020 4:49 pm

Que mala suertee! Llegamos a los 39,9 y después rebotó para abajo. El registro de las 17 hs es nuestra última esperanza de alcanzar los 40

Responder